Time;durP1;ratioP1;P1;durP2;ratioP2;P2;SDS_P1;SDS_P2;PMS_P1;PMS_P2;Temp;Humidity;BMP_temperature;BMP_pressure;BME280_temperature;BME280_humidity;BME280_pressure;Samples;Min_cycle;Max_cycle;Signal;HPM_P1;HPM_P2
2022/07/19 00:01:51;;;;;;;49.42;45.85;;;29.80;35.60;;;;;;4973586;28;20039;-82
2022/07/19 00:04:17;;;;;;;46.38;42.67;;;29.70;35.70;;;;;;4957654;29;20474;-82
2022/07/19 00:06:43;;;;;;;45.30;42.10;;;29.60;36.00;;;;;;4957402;29;20031;-82
2022/07/19 00:09:09;;;;;;;44.40;40.92;;;29.60;36.00;;;;;;4957942;29;20478;-83
2022/07/19 00:11:35;;;;;;;46.25;42.70;;;29.60;35.90;;;;;;4939511;29;20051;-82
2022/07/19 00:14:01;;;;;;;43.53;40.55;;;29.70;35.70;;;;;;4955437;29;20333;-83
2022/07/19 00:16:27;;;;;;;43.70;40.53;;;29.60;36.00;;;;;;4953977;28;20042;-82
2022/07/19 00:18:54;;;;;;;42.08;39.30;;;29.50;36.20;;;;;;4955747;29;20038;-82
2022/07/19 00:21:20;;;;;;;42.35;39.35;;;29.50;36.40;;;;;;4954535;29;20039;-83
2022/07/19 00:23:46;;;;;;;41.60;39.15;;;29.40;36.40;;;;;;4955608;29;20394;-82
2022/07/19 00:26:12;;;;;;;40.22;37.72;;;29.40;36.60;;;;;;4954159;29;20046;-82
2022/07/19 00:28:38;;;;;;;53.42;49.85;;;29.30;37.00;;;;;;4938181;29;20050;-82
2022/07/19 00:31:04;;;;;;;41.80;39.10;;;29.20;37.20;;;;;;4953770;28;20042;-82
2022/07/19 00:33:30;;;;;;;45.40;42.20;;;29.30;37.00;;;;;;4938472;29;20031;-82
2022/07/19 00:35:56;;;;;;;45.42;42.45;;;29.20;37.00;;;;;;4953510;28;20027;-82
2022/07/19 00:38:22;;;;;;;44.47;41.47;;;29.20;37.30;;;;;;4954047;29;20051;-82
2022/07/19 00:40:48;;;;;;;46.05;42.80;;;29.10;37.40;;;;;;4955057;29;20031;-83
2022/07/19 00:43:15;;;;;;;43.72;40.88;;;29.10;37.50;;;;;;4954819;29;20035;-82
2022/07/19 00:45:41;;;;;;;41.55;38.50;;;29.00;37.70;;;;;;4954749;28;20035;-82
2022/07/19 00:48:07;;;;;;;43.17;40.08;;;28.90;38.00;;;;;;4955057;29;20042;-82
2022/07/19 00:50:33;;;;;;;41.40;38.47;;;28.90;37.90;;;;;;4953961;29;20509;-82
2022/07/19 00:53:00;;;;;;;36.78;34.10;;;28.80;38.40;;;;;;4953772;29;20047;-82
2022/07/19 00:55:29;;;;;;;34.83;32.55;;;28.70;38.70;;;;;;4954933;28;20066;-82
2022/07/19 00:57:56;;;;;;;34.90;32.40;;;28.70;38.70;;;;;;4937533;29;20055;-82
2022/07/19 01:00:22;;;;;;;33.67;31.30;;;28.70;38.90;;;;;;4957752;28;20657;-82
2022/07/19 01:02:48;;;;;;;32.47;30.25;;;28.60;38.70;;;;;;4937853;29;20043;-82
2022/07/19 01:05:14;;;;;;;33.20;30.77;;;28.50;38.90;;;;;;4953541;29;20031;-82
2022/07/19 01:07:41;;;;;;;31.83;29.50;;;28.40;39.30;;;;;;4940524;29;20035;-82
2022/07/19 01:10:08;;;;;;;31.17;28.80;;;28.30;39.60;;;;;;4934386;29;20028;-82
2022/07/19 01:12:34;;;;;;;30.90;28.80;;;28.40;39.70;;;;;;4933833;29;20031;-82
2022/07/19 01:15:02;;;;;;;39.08;36.25;;;28.20;39.80;;;;;;4934307;29;20027;-82
2022/07/19 01:17:29;;;;;;;33.13;30.33;;;28.20;39.90;;;;;;4917708;29;20410;-82
2022/07/19 01:19:55;;;;;;;32.53;30.33;;;28.20;40.20;;;;;;4934146;29;20099;-82
2022/07/19 01:22:21;;;;;;;34.58;31.65;;;28.10;40.20;;;;;;4935592;29;20031;-82
2022/07/19 01:24:47;;;;;;;34.53;32.20;;;28.10;40.40;;;;;;4935266;29;20031;-82
2022/07/19 01:27:13;;;;;;;33.75;31.58;;;28.00;40.60;;;;;;4934771;29;20035;-82
2022/07/19 01:29:39;;;;;;;35.10;32.80;;;28.00;40.70;;;;;;4935277;29;20039;-82
2022/07/19 01:32:06;;;;;;;33.67;31.52;;;27.90;40.80;;;;;;4934678;28;20048;-82
2022/07/19 01:34:32;;;;;;;32.72;30.42;;;28.00;40.50;;;;;;4935487;29;20039;-82
2022/07/19 01:36:58;;;;;;;34.95;32.25;;;28.00;40.40;;;;;;4933815;29;20047;-82
2022/07/19 01:39:24;;;;;;;33.20;30.85;;;27.90;40.70;;;;;;4935160;29;20024;-82
2022/07/19 01:41:50;;;;;;;37.30;34.05;;;27.90;40.90;;;;;;4934700;29;20035;-82
2022/07/19 01:44:16;;;;;;;35.22;32.67;;;27.90;41.40;;;;;;4934858;29;20027;-82
2022/07/19 01:46:42;;;;;;;36.47;34.03;;;27.80;41.00;;;;;;4933585;28;20051;-82
2022/07/19 01:49:09;;;;;;;37.97;34.85;;;27.90;40.90;;;;;;4935111;29;20039;-81
2022/07/19 01:51:35;;;;;;;37.53;35.00;;;28.00;41.00;;;;;;4934955;29;20028;-82
2022/07/19 01:54:01;;;;;;;37.00;34.42;;;28.00;41.00;;;;;;4933587;29;20043;-82
2022/07/19 01:56:27;;;;;;;37.22;34.33;;;27.90;41.20;;;;;;4934096;29;20040;-82
2022/07/19 01:58:53;;;;;;;33.05;30.77;;;27.90;41.60;;;;;;4934494;29;20063;-82
2022/07/19 02:01:19;;;;;;;33.67;31.15;;;27.70;42.00;;;;;;4939437;28;20032;-82
2022/07/19 02:03:45;;;;;;;30.90;28.80;;;27.70;42.20;;;;;;4968537;28;20046;-82
2022/07/19 02:06:12;;;;;;;32.22;30.02;;;27.60;42.40;;;;;;4936395;29;20474;-82
2022/07/19 02:08:40;;;;;;;32.38;29.95;;;27.60;42.10;;;;;;4936792;29;20039;-82
2022/07/19 02:13:51;;;;;;;31.17;28.92;;;27.50;42.60;;;;;;4955345;28;20050;-82
2022/07/19 02:16:17;;;;;;;30.92;28.77;;;27.40;42.90;;;;;;4951832;28;20402;-82
2022/07/19 02:18:43;;;;;;;29.15;26.95;;;27.40;42.80;;;;;;4953487;29;20486;-82
2022/07/19 02:21:09;;;;;;;29.35;26.88;;;27.30;43.00;;;;;;4952354;29;20035;-82
2022/07/19 02:23:35;;;;;;;30.45;28.25;;;27.20;43.10;;;;;;4953329;29;20039;-82
2022/07/19 02:26:02;;;;;;;29.55;27.33;;;27.20;43.20;;;;;;4951757;29;20089;-82
2022/07/19 02:28:28;;;;;;;30.17;27.83;;;27.30;43.00;;;;;;4951339;29;20394;-82
2022/07/19 02:30:54;;;;;;;30.38;28.35;;;27.40;43.00;;;;;;4952949;28;20043;-82
2022/07/19 02:33:20;;;;;;;31.42;29.15;;;27.50;42.90;;;;;;4953308;29;20035;-82
2022/07/19 02:35:46;;;;;;;32.40;30.05;;;27.60;42.60;;;;;;4953298;29;20030;-82
2022/07/19 02:38:12;;;;;;;33.75;31.25;;;27.80;42.20;;;;;;4953246;29;20090;-82
2022/07/19 02:40:38;;;;;;;32.92;30.58;;;27.90;41.80;;;;;;4953210;29;20034;-81
2022/07/19 02:43:04;;;;;;;32.63;30.08;;;28.00;42.00;;;;;;4935882;29;20035;-82
2022/07/19 02:45:31;;;;;;;32.08;29.95;;;27.90;42.40;;;;;;4935629;28;20038;-82
2022/07/19 02:47:57;;;;;;;31.17;28.70;;;27.80;42.70;;;;;;4952071;29;20027;-82
2022/07/19 02:50:24;;;;;;;30.45;28.40;;;27.70;42.90;;;;;;4953318;29;20489;-82
2022/07/19 02:52:50;;;;;;;32.38;29.95;;;27.70;43.00;;;;;;4952999;29;20027;-82
2022/07/19 02:55:17;;;;;;;33.33;30.88;;;27.80;42.70;;;;;;4951476;28;20034;-82
2022/07/19 02:57:43;;;;;;;30.80;28.35;;;27.80;42.80;;;;;;4951089;28;20055;-82
2022/07/19 03:00:09;;;;;;;32.15;29.58;;;27.80;42.70;;;;;;4956958;28;20027;-81
2022/07/19 03:02:35;;;;;;;31.67;29.65;;;27.90;42.70;;;;;;4952853;29;20035;-82
2022/07/19 03:05:01;;;;;;;31.67;29.58;;;28.00;42.70;;;;;;4951718;29;20046;-82
2022/07/19 03:07:28;;;;;;;31.58;29.30;;;27.90;43.00;;;;;;4940275;28;20035;-82
2022/07/19 03:09:54;;;;;;;31.38;29.00;;;27.90;42.70;;;;;;4932410;29;20043;-82
2022/07/19 03:12:20;;;;;;;32.22;29.88;;;28.00;42.50;;;;;;4932683;29;20371;-82
2022/07/19 03:14:46;;;;;;;32.25;29.77;;;28.10;42.20;;;;;;4933609;29;20034;-82
2022/07/19 03:17:12;;;;;;;32.13;29.70;;;28.20;42.10;;;;;;4933105;28;20102;-82
2022/07/19 03:19:38;;;;;;;33.58;31.33;;;28.20;42.00;;;;;;4917033;29;20476;-82
2022/07/19 03:22:05;;;;;;;34.38;31.77;;;28.20;41.90;;;;;;4933620;29;20039;-82
2022/07/19 03:24:31;;;;;;;31.67;29.75;;;28.20;42.10;;;;;;4931867;29;20035;-82
2022/07/19 03:26:57;;;;;;;33.08;30.40;;;28.20;41.80;;;;;;4933793;29;20032;-82
2022/07/19 03:29:23;;;;;;;31.83;29.52;;;28.10;42.10;;;;;;4933427;29;20462;-82
2022/07/19 03:31:49;;;;;;;32.72;30.33;;;28.10;42.30;;;;;;4933187;28;20048;-82
2022/07/19 03:34:15;;;;;;;31.63;29.35;;;28.00;42.50;;;;;;4932411;28;20128;-82
2022/07/19 03:36:41;;;;;;;32.75;30.23;;;28.00;42.40;;;;;;4931855;29;20498;-82
2022/07/19 03:39:07;;;;;;;32.40;30.30;;;28.00;42.60;;;;;;4933010;29;20054;-82
2022/07/19 03:41:33;;;;;;;32.83;30.13;;;28.00;42.60;;;;;;4933588;29;20038;-82
2022/07/19 03:43:59;;;;;;;34.13;30.92;;;27.90;42.70;;;;;;4933460;29;20474;-82
2022/07/19 03:46:28;;;;;;;33.35;30.00;;;27.70;43.10;;;;;;4931788;28;20040;-82
2022/07/19 03:48:54;;;;;;;31.08;29.00;;;27.60;43.30;;;;;;4933115;29;20043;-82
2022/07/19 03:51:21;;;;;;;30.73;28.50;;;27.50;43.20;;;;;;4933215;29;20093;-81
2022/07/19 03:53:47;;;;;;;30.45;28.17;;;27.60;43.30;;;;;;4931652;29;20046;-82
2022/07/19 03:56:13;;;;;;;32.20;29.95;;;27.60;43.00;;;;;;4933397;29;20032;-82
2022/07/19 03:58:40;;;;;;;32.55;30.00;;;27.70;42.90;;;;;;4932008;29;20056;-82
2022/07/19 04:01:06;;;;;;;32.47;29.58;;;27.70;42.80;;;;;;4953011;28;20494;-82
2022/07/19 04:03:39;;;;;;;31.73;29.17;;;27.70;43.10;;;;;;4951181;28;20047;-82
2022/07/19 04:06:06;;;;;;;28.85;26.77;;;27.60;44.00;;;;;;4949896;28;20031;-81
2022/07/19 04:08:32;;;;;;;28.80;26.65;;;27.60;43.30;;;;;;4932261;29;20042;-82
2022/07/19 04:10:59;;;;;;;30.60;28.20;;;27.60;43.00;;;;;;4934330;29;20019;-82
2022/07/19 04:13:25;;;;;;;30.45;28.20;;;27.70;43.10;;;;;;4936599;29;20192;-82
2022/07/19 04:15:51;;;;;;;28.77;26.92;;;27.70;43.10;;;;;;4936039;28;20390;-81
2022/07/19 04:18:17;;;;;;;29.92;27.55;;;27.70;43.30;;;;;;4936532;29;20039;-82
2022/07/19 04:20:43;;;;;;;29.40;26.88;;;27.60;43.30;;;;;;4936494;29;20032;-82
2022/07/19 04:23:09;;;;;;;30.35;27.63;;;27.60;43.40;;;;;;4935435;29;20023;-82
2022/07/19 04:25:35;;;;;;;29.23;27.10;;;27.60;43.40;;;;;;4936528;29;20036;-82
2022/07/19 04:28:02;;;;;;;30.52;27.55;;;27.50;43.70;;;;;;4936495;29;20042;-82
2022/07/19 04:30:29;;;;;;;29.38;27.20;;;27.50;43.70;;;;;;4935880;28;20054;-81
2022/07/19 04:32:55;;;;;;;30.90;28.17;;;27.40;44.00;;;;;;4934901;29;20031;-82
2022/07/19 04:35:21;;;;;;;30.63;28.15;;;27.40;43.80;;;;;;4935827;29;20433;-82
2022/07/19 04:37:47;;;;;;;31.73;29.27;;;27.50;43.70;;;;;;4934873;29;20052;-82
2022/07/19 04:40:13;;;;;;;28.15;26.08;;;27.50;43.70;;;;;;4936031;29;20035;-82
2022/07/19 04:42:39;;;;;;;28.70;26.30;;;27.60;43.80;;;;;;4936166;29;20036;-81
2022/07/19 04:45:06;;;;;;;28.30;26.38;;;27.50;43.80;;;;;;4935640;28;20035;-81
2022/07/19 04:47:32;;;;;;;29.60;27.10;;;27.40;44.20;;;;;;4935812;29;20047;-81
2022/07/19 04:49:58;;;;;;;28.30;25.85;;;27.30;44.40;;;;;;4935629;29;20387;-82
2022/07/19 04:52:24;;;;;;;29.13;26.60;;;27.00;44.90;;;;;;4936107;29;20031;-82
2022/07/19 04:54:50;;;;;;;27.80;25.80;;;27.00;44.80;;;;;;4935974;29;20028;-81
2022/07/19 04:57:16;;;;;;;29.10;26.80;;;27.00;45.10;;;;;;4935935;29;20043;-82
2022/07/19 04:59:43;;;;;;;29.08;26.98;;;27.00;45.20;;;;;;4945270;28;20047;-81
2022/07/19 05:02:09;;;;;;;32.25;29.33;;;27.00;45.50;;;;;;4954271;28;20035;-82
2022/07/19 05:04:35;;;;;;;29.77;26.95;;;27.00;45.50;;;;;;4954507;29;20023;-81
2022/07/19 05:07:01;;;;;;;27.52;25.60;;;27.00;45.70;;;;;;4946001;29;20032;-81
2022/07/19 05:09:27;;;;;;;27.73;25.58;;;26.90;46.00;;;;;;4934463;29;20039;-81
2022/07/19 05:11:54;;;;;;;26.02;23.92;;;26.60;46.60;;;;;;4935629;29;20027;-81
2022/07/19 05:14:20;;;;;;;26.30;24.17;;;26.40;46.70;;;;;;4934318;29;20028;-82
2022/07/19 05:16:47;;;;;;;27.10;25.02;;;26.40;46.70;;;;;;4933766;28;20027;-82
2022/07/19 05:19:13;;;;;;;26.33;24.52;;;26.40;46.70;;;;;;4918554;29;20054;-82
2022/07/19 05:21:39;;;;;;;28.38;26.05;;;26.60;46.30;;;;;;4934146;29;20024;-82
2022/07/19 05:24:06;;;;;;;26.95;25.00;;;26.70;46.30;;;;;;4935367;29;20039;-82
2022/07/19 05:26:33;;;;;;;27.25;24.60;;;26.80;46.10;;;;;;4934042;29;20036;-82
2022/07/19 05:29:00;;;;;;;28.15;26.25;;;26.80;46.20;;;;;;4935132;29;20052;-82
2022/07/19 05:31:26;;;;;;;30.05;27.40;;;26.80;46.00;;;;;;4934713;28;20032;-82
2022/07/19 05:33:52;;;;;;;30.13;27.98;;;26.90;46.00;;;;;;4933632;29;20043;-81
2022/07/19 05:36:18;;;;;;;29.17;26.65;;;26.90;45.70;;;;;;4918043;29;20032;-82
2022/07/19 05:38:44;;;;;;;29.23;27.00;;;26.90;45.80;;;;;;4935004;29;20040;-82
2022/07/19 05:41:10;;;;;;;30.60;27.75;;;27.00;45.90;;;;;;4935177;29;20028;-82
2022/07/19 05:43:38;;;;;;;28.80;26.70;;;27.00;45.90;;;;;;4934720;29;20044;-82
2022/07/19 05:46:04;;;;;;;29.88;27.77;;;27.00;46.10;;;;;;4934573;28;20255;-82
2022/07/19 05:48:30;;;;;;;30.13;27.80;;;27.00;46.20;;;;;;4917881;29;20048;-82
2022/07/19 05:50:57;;;;;;;30.17;27.35;;;27.00;46.20;;;;;;4934865;29;20043;-82
2022/07/19 05:53:23;;;;;;;31.27;28.70;;;27.10;46.20;;;;;;4934875;29;20040;-82
2022/07/19 05:55:49;;;;;;;32.35;29.75;;;27.20;46.10;;;;;;4934971;29;20027;-82
2022/07/19 05:58:17;;;;;;;30.02;27.73;;;27.30;45.90;;;;;;4933364;29;20063;-82
2022/07/19 06:01:30;;;;;;;32.10;29.73;;;27.40;45.60;;;;;;4950606;28;20039;-82
2022/07/19 06:03:31;;;;;;;32.47;30.25;;;27.50;45.40;;;;;;4949752;28;20039;-83
2022/07/19 06:05:57;;;;;;;33.97;31.23;;;27.70;45.00;;;;;;4952048;28;20028;-83
2022/07/19 06:08:23;;;;;;;34.05;31.52;;;27.80;44.50;;;;;;4953195;29;20074;-83
2022/07/19 06:10:49;;;;;;;35.35;32.85;;;28.00;44.50;;;;;;4952488;29;20035;-83
2022/07/19 06:13:16;;;;;;;35.13;32.67;;;28.20;43.70;;;;;;4953837;29;20042;-82
2022/07/19 06:15:42;;;;;;;35.17;32.40;;;28.30;43.40;;;;;;4953182;28;20058;-83
2022/07/19 06:18:08;;;;;;;35.78;33.45;;;28.20;43.40;;;;;;4953215;29;20038;-83
2022/07/19 06:20:34;;;;;;;35.47;33.00;;;28.30;43.50;;;;;;4953658;29;20027;-83
2022/07/19 06:23:00;;;;;;;35.55;32.42;;;28.30;43.40;;;;;;4952347;29;20035;-83
2022/07/19 06:25:26;;;;;;;33.78;31.60;;;28.40;43.20;;;;;;4953552;29;20062;-82
2022/07/19 06:27:52;;;;;;;32.38;30.15;;;28.50;42.90;;;;;;4953538;29;20466;-83
2022/07/19 06:30:25;;;;;;;33.13;30.50;;;28.50;42.50;;;;;;4952038;28;20027;-82
2022/07/19 06:32:51;;;;;;;34.42;32.03;;;28.60;42.50;;;;;;4952333;28;20498;-82
2022/07/19 06:35:17;;;;;;;33.97;31.52;;;28.60;42.10;;;;;;4952003;29;20054;-83
2022/07/19 06:37:43;;;;;;;33.80;30.73;;;28.80;41.80;;;;;;4953456;29;20042;-82
2022/07/19 06:40:10;;;;;;;33.55;30.83;;;28.90;41.80;;;;;;4952017;29;20039;-82
2022/07/19 06:42:36;;;;;;;35.47;32.55;;;28.90;42.00;;;;;;4952042;28;20371;-82
2022/07/19 06:45:03;;;;;;;35.72;32.92;;;29.10;41.70;;;;;;4952844;28;20426;-79
2022/07/19 06:47:29;;;;;;;37.92;35.38;;;29.20;41.50;;;;;;4951648;28;20031;-82
2022/07/19 06:49:55;;;;;;;41.58;38.75;;;29.20;41.60;;;;;;4953105;29;20027;-82
2022/07/19 06:52:21;;;;;;;42.88;40.08;;;29.30;41.20;;;;;;4953639;28;20532;-82
2022/07/19 06:54:47;;;;;;;46.30;43.45;;;29.40;40.80;;;;;;4953103;29;20039;-82
2022/07/19 06:57:14;;;;;;;45.00;42.30;;;29.40;40.70;;;;;;4953060;29;20516;-82
2022/07/19 06:59:40;;;;;;;49.03;46.10;;;29.50;40.80;;;;;;4957359;28;20051;-82
2022/07/19 07:02:06;;;;;;;49.08;46.00;;;29.70;40.40;;;;;;4952086;28;20482;-82
2022/07/19 07:04:32;;;;;;;46.83;44.03;;;29.90;40.10;;;;;;4951668;29;20512;-83
2022/07/19 07:06:58;;;;;;;47.05;44.40;;;29.90;39.80;;;;;;4945952;29;20032;-83
2022/07/19 07:09:24;;;;;;;50.95;47.80;;;30.00;40.00;;;;;;4933906;29;20023;-83
2022/07/19 07:11:50;;;;;;;50.88;47.72;;;30.00;40.00;;;;;;4933886;29;20036;-83
2022/07/19 07:14:16;;;;;;;48.50;45.90;;;30.20;39.60;;;;;;4932666;29;20031;-83
2022/07/19 07:16:42;;;;;;;53.20;49.90;;;30.30;39.10;;;;;;4932941;28;20055;-82
2022/07/19 07:19:08;;;;;;;52.35;49.35;;;30.20;39.60;;;;;;4933741;29;20039;-82
2022/07/19 07:21:35;;;;;;;50.20;47.22;;;30.30;39.60;;;;;;4933610;29;20149;-83
2022/07/19 07:24:02;;;;;;;53.15;49.67;;;30.20;39.60;;;;;;4932390;29;20043;-82
2022/07/19 07:26:28;;;;;;;56.60;53.03;;;30.30;39.70;;;;;;4933826;29;20043;-83
2022/07/19 07:28:54;;;;;;;56.55;52.55;;;30.50;39.50;;;;;;4933369;29;20390;-82
2022/07/19 07:31:22;;;;;;;61.03;57.28;;;30.50;39.50;;;;;;4932211;28;20043;-83
2022/07/19 07:33:49;;;;;;;56.13;52.47;;;30.70;39.70;;;;;;4932567;29;20035;-83
2022/07/19 07:36:15;;;;;;;63.35;59.22;;;31.00;39.80;;;;;;4932161;29;20032;-83
2022/07/19 07:38:41;;;;;;;62.90;58.75;;;31.00;39.80;;;;;;4916764;29;20048;-82
2022/07/19 07:41:07;;;;;;;66.60;62.30;;;31.00;39.30;;;;;;4933389;29;20047;-83
2022/07/19 07:43:33;;;;;;;66.82;62.63;;;31.00;38.80;;;;;;4931960;29;20035;-83
2022/07/19 07:45:59;;;;;;;64.95;60.00;;;31.10;38.70;;;;;;4949771;28;20987;-83
2022/07/19 07:48:26;;;;;;;70.85;66.15;;;31.10;39.00;;;;;;4935999;29;20032;-83
2022/07/19 07:50:52;;;;;;;71.82;67.22;;;31.30;38.90;;;;;;4936985;29;20509;-83
2022/07/19 07:53:18;;;;;;;71.80;67.38;;;31.60;38.70;;;;;;4937055;29;20051;-83
2022/07/19 07:55:44;;;;;;;83.38;77.90;;;31.80;37.90;;;;;;4935974;29;20036;-83
2022/07/19 07:58:11;;;;;;;75.75;71.05;;;32.10;37.50;;;;;;4936590;29;20052;-83
2022/07/19 08:00:37;;;;;;;84.03;78.50;;;32.30;37.00;;;;;;4952172;28;20035;-83
2022/07/19 08:03:03;;;;;;;80.82;75.65;;;32.50;37.20;;;;;;4956211;29;20449;-83
2022/07/19 08:05:30;;;;;;;72.82;68.32;;;32.80;36.50;;;;;;4957923;28;20390;-83
2022/07/19 08:07:56;;;;;;;72.13;67.28;;;32.90;36.20;;;;;;4951742;29;20382;-83
2022/07/19 08:10:24;;;;;;;73.07;68.22;;;33.00;36.20;;;;;;4955021;29;20035;-83
2022/07/19 08:12:50;;;;;;;78.35;73.35;;;33.10;36.40;;;;;;4954789;29;20023;-83
2022/07/19 08:15:17;;;;;;;75.90;70.88;;;33.10;36.30;;;;;;4954599;28;20040;-83
2022/07/19 08:17:43;;;;;;;86.50;80.70;;;33.20;36.30;;;;;;4954980;29;20061;-84
2022/07/19 08:20:09;;;;;;;74.70;69.70;;;33.20;36.20;;;;;;4956035;29;20035;-84
2022/07/19 08:22:35;;;;;;;88.78;83.15;;;33.50;36.40;;;;;;4954899;29;20027;-84
2022/07/19 08:25:02;;;;;;;79.05;73.95;;;33.60;36.20;;;;;;4955188;29;20031;-85
2022/07/19 08:27:28;;;;;;;81.82;76.70;;;33.60;36.10;;;;;;4938698;29;20043;-84
2022/07/19 08:29:54;;;;;;;88.57;82.82;;;33.70;36.00;;;;;;4954587;29;20030;-85
2022/07/19 08:32:21;;;;;;;76.78;71.50;;;33.70;36.20;;;;;;4954038;28;20039;-85
2022/07/19 08:34:47;;;;;;;90.55;84.65;;;33.70;36.50;;;;;;4954590;28;20027;-85
2022/07/19 08:37:13;;;;;;;110.70;101.90;;;33.90;36.70;;;;;;4953996;29;20062;-83
2022/07/19 08:39:39;;;;;;;117.45;108.95;;;34.00;39.70;;;;;;4954422;29;20054;-85
2022/07/19 08:42:05;;;;;;;102.28;95.63;;;33.90;41.80;;;;;;4953658;29;20038;-85
2022/07/19 08:44:31;;;;;;;106.43;98.97;;;33.90;43.20;;;;;;4954327;29;20035;-85
2022/07/19 08:46:57;;;;;;;129.60;120.80;;;33.90;43.80;;;;;;4953613;28;20513;-85
2022/07/19 08:49:23;;;;;;;97.95;90.50;;;33.80;44.80;;;;;;4938506;29;20486;-84
2022/07/19 08:51:49;;;;;;;140.82;130.45;;;33.50;45.70;;;;;;4955206;29;20121;-85
2022/07/19 08:54:15;;;;;;;109.93;100.93;;;33.40;46.40;;;;;;4938263;29;20413;-85
2022/07/19 08:59:26;;;;;;;125.57;114.68;;;32.80;47.30;;;;;;4959382;28;20081;-84
2022/07/19 09:01:52;;;;;;;127.40;116.65;;;32.60;47.80;;;;;;4970916;28;20050;-85
2022/07/19 09:04:20;;;;;;;131.93;120.38;;;32.50;47.90;;;;;;4955030;29;20046;-84
2022/07/19 09:06:50;;;;;;;136.82;124.57;;;32.50;48.10;;;;;;4947850;29;20501;-85
2022/07/19 09:09:21;;;;;;;;;;;32.40;48.20;;;;;;4935658;29;20039;-85
2022/07/19 09:11:48;;;;;;;135.80;124.20;;;32.50;48.30;;;;;;4933558;29;19911;-85
2022/07/19 09:14:16;;;;;;;131.88;120.03;;;32.60;48.20;;;;;;4934393;29;20035;-85
2022/07/19 09:16:56;;;;;;;122.55;111.93;;;32.60;48.60;;;;;;4935231;28;20062;-84
2022/07/19 09:19:24;;;;;;;131.15;120.18;;;32.60;48.00;;;;;;4935615;29;20044;-84
2022/07/19 09:21:58;;;;;;;123.10;112.38;;;32.60;48.20;;;;;;4935575;29;20028;-85
2022/07/19 09:24:24;;;;;;;121.22;111.00;;;32.50;48.20;;;;;;4934255;29;20044;-84
2022/07/19 09:26:57;;;;;;;123.45;113.40;;;32.40;48.20;;;;;;4934987;29;20020;-84
2022/07/19 09:29:23;;;;;;;127.32;117.00;;;32.50;48.20;;;;;;4918503;29;20043;-85
2022/07/19 09:32:04;;;;;;;100.30;92.35;;;32.40;48.20;;;;;;4935133;28;20054;-85
2022/07/19 09:34:35;;;;;;;116.85;107.80;;;32.30;48.40;;;;;;4935464;29;20036;-85
2022/07/19 09:37:07;;;;;;;;;;;32.10;48.70;;;;;;4934330;29;20039;-85
2022/07/19 09:39:33;;;;;;;98.05;90.13;;;32.00;49.10;;;;;;4934628;29;19923;-85
2022/07/19 09:42:02;;;;;;;98.25;90.63;;;32.10;49.30;;;;;;4934854;29;20385;-84
2022/07/19 09:44:29;;;;;;;92.18;84.82;;;32.20;49.50;;;;;;4933096;29;20051;-84
2022/07/19 09:46:55;;;;;;;97.65;90.00;;;32.10;49.30;;;;;;4933233;28;20039;-84
2022/07/19 09:49:21;;;;;;;95.35;87.78;;;32.10;49.60;;;;;;4933516;29;20055;-84
2022/07/19 09:51:49;;;;;;;79.45;73.25;;;32.00;49.80;;;;;;4918138;29;20035;-84
2022/07/19 09:54:19;;;;;;;80.07;73.90;;;32.10;49.50;;;;;;4934559;29;20032;-84
2022/07/19 09:56:46;;;;;;;82.07;75.45;;;32.30;49.20;;;;;;4935246;29;20039;-85
2022/07/19 09:59:13;;;;;;;82.00;76.07;;;32.50;49.00;;;;;;4936866;28;20051;-85
2022/07/19 10:01:39;;;;;;;85.07;78.80;;;32.50;48.30;;;;;;4957322;28;20493;-85
2022/07/19 10:04:12;;;;;;;87.40;81.38;;;32.40;48.20;;;;;;4952885;28;20393;-85
2022/07/19 10:06:39;;;;;;;68.28;63.17;;;32.30;48.40;;;;;;4949222;29;20028;-84
2022/07/19 10:09:07;;;;;;;70.60;65.45;;;32.10;48.30;;;;;;4934020;29;20459;-84
2022/07/19 10:11:33;;;;;;;70.03;65.25;;;31.90;48.60;;;;;;4933713;29;20047;-85
2022/07/19 10:13:59;;;;;;;91.00;85.15;;;31.90;48.80;;;;;;4933239;29;20028;-85
2022/07/19 10:16:53;;;;;;;81.88;75.88;;;31.70;49.00;;;;;;4934136;28;20044;-84
2022/07/19 10:19:37;;;;;;;79.60;74.10;;;31.60;49.20;;;;;;4933623;29;20482;-85
2022/07/19 10:22:03;;;;;;;82.57;77.35;;;31.50;49.70;;;;;;4933302;29;20032;-85
2022/07/19 10:24:43;;;;;;;104.70;97.57;;;31.30;50.00;;;;;;4933065;29;20035;-85
2022/07/19 10:27:09;;;;;;;74.30;68.87;;;31.00;50.70;;;;;;4934466;29;20024;-84
2022/07/19 10:29:35;;;;;;;75.88;70.50;;;30.90;51.10;;;;;;4933129;29;20047;-84
2022/07/19 10:32:09;;;;;;;67.70;62.47;;;30.70;51.60;;;;;;4932209;29;20036;-84
2022/07/19 10:34:35;;;;;;;69.18;63.80;;;30.50;52.10;;;;;;4934301;29;20388;-84
2022/07/19 10:37:01;;;;;;;70.50;64.65;;;30.40;52.20;;;;;;4934181;29;20051;-84
2022/07/19 10:39:33;;;;;;;69.18;64.05;;;30.40;52.40;;;;;;4933860;29;20047;-84
2022/07/19 10:42:13;;;;;;;61.35;56.35;;;30.50;52.40;;;;;;4932787;29;20040;-84
2022/07/19 10:44:55;;;;;;;60.33;55.50;;;30.90;51.60;;;;;;4934378;29;20051;-84
2022/07/19 10:47:21;;;;;;;61.88;57.17;;;31.20;51.20;;;;;;4933858;28;20039;-85
2022/07/19 10:49:48;;;;;;;57.50;53.05;;;31.40;50.70;;;;;;4933052;29;20487;-84
2022/07/19 10:52:29;;;;;;;58.90;54.47;;;31.40;50.20;;;;;;4932486;29;20046;-85
2022/07/19 10:57:44;;;;;;;57.75;53.30;;;31.50;49.60;;;;;;4940272;29;20075;-85
2022/07/19 11:00:21;;;;;;;59.72;55.20;;;31.40;49.70;;;;;;4929803;28;20497;-84
2022/07/19 11:02:47;;;;;;;58.13;53.75;;;31.30;49.80;;;;;;4967812;28;20477;-85
2022/07/19 11:05:23;;;;;;;60.75;56.28;;;31.20;49.90;;;;;;4957276;28;20043;-84
2022/07/19 11:07:54;;;;;;;63.40;58.80;;;31.10;50.10;;;;;;4946312;29;20035;-85
2022/07/19 11:10:27;;;;;;;71.03;66.28;;;31.00;50.40;;;;;;4951864;29;20031;-84
2022/07/19 11:12:54;;;;;;;63.67;59.45;;;30.80;50.00;;;;;;4951947;28;20042;-84
2022/07/19 11:15:21;;;;;;;71.82;67.20;;;30.80;50.20;;;;;;4952524;28;20047;-84
2022/07/19 11:17:57;;;;;;;62.72;58.47;;;30.50;51.00;;;;;;4951793;29;20047;-84
2022/07/19 11:20:24;;;;;;;73.03;68.38;;;30.40;50.70;;;;;;4954920;28;20051;-84
2022/07/19 11:22:51;;;;;;;63.78;59.25;;;30.30;50.90;;;;;;4955033;29;20151;-84
2022/07/19 11:25:23;;;;;;;60.15;55.75;;;30.30;50.90;;;;;;4955264;29;20401;-83
2022/07/19 11:27:49;;;;;;;62.03;57.90;;;30.40;51.00;;;;;;4940153;29;20051;-84
2022/07/19 11:30:16;;;;;;;60.58;56.47;;;30.40;50.90;;;;;;4955024;28;20371;-84
2022/07/19 11:32:42;;;;;;;61.45;57.10;;;30.30;50.90;;;;;;4955542;29;20027;-84
2022/07/19 11:35:10;;;;;;;58.20;54.08;;;30.20;51.30;;;;;;4956703;29;20027;-84
2022/07/19 11:37:38;;;;;;;63.72;59.03;;;30.10;51.70;;;;;;4956167;28;20050;-84
2022/07/19 11:40:05;;;;;;;57.53;53.42;;;30.10;52.60;;;;;;4956573;29;20039;-84
2022/07/19 11:42:36;;;;;;;59.30;55.33;;;30.10;52.60;;;;;;4956350;29;20031;-84
2022/07/19 11:45:22;;;;;;;58.42;54.10;;;30.10;51.80;;;;;;4954580;28;20039;-84
2022/07/19 11:47:55;;;;;;;56.83;52.72;;;30.10;51.60;;;;;;4956440;29;20027;-84
2022/07/19 11:50:23;;;;;;;62.45;57.90;;;30.00;51.90;;;;;;4954797;29;20027;-84
2022/07/19 11:52:53;;;;;;;47.28;43.55;;;29.90;52.30;;;;;;4954993;29;20039;-84
2022/07/19 11:55:27;;;;;;;52.88;48.25;;;29.60;54.90;;;;;;4954806;29;20040;-84
2022/07/19 11:57:54;;;;;;;55.83;50.78;;;29.20;55.70;;;;;;4956178;29;20036;-84
2022/07/19 12:00:20;;;;;;;53.83;49.53;;;29.10;56.70;;;;;;4960285;28;20058;-84
2022/07/19 12:03:13;;;;;;;48.13;44.42;;;29.10;56.40;;;;;;4954776;29;20386;-84
2022/07/19 12:05:40;;;;;;;43.47;39.80;;;29.10;56.50;;;;;;4953376;29;20039;-84
2022/07/19 12:08:08;;;;;;;42.50;39.15;;;29.00;56.60;;;;;;4954396;29;20393;-84
2022/07/19 12:10:44;;;;;;;41.92;38.42;;;29.00;56.20;;;;;;4956062;29;20039;-84
2022/07/19 12:13:13;;;;;;;44.78;41.42;;;29.10;56.30;;;;;;4954956;29;20023;-84
2022/07/19 12:15:44;;;;;;;45.17;41.78;;;29.20;55.80;;;;;;4953949;28;20035;-84
2022/07/19 12:18:10;;;;;;;49.38;45.17;;;29.30;55.40;;;;;;4955835;29;20030;-84
2022/07/19 12:20:36;;;;;;;46.25;42.85;;;29.50;54.00;;;;;;4954334;29;20047;-84
2022/07/19 12:23:16;;;;;;;45.13;41.90;;;29.70;53.40;;;;;;4938897;29;20508;-84
2022/07/19 12:25:42;;;;;;;;;;;29.80;53.20;;;;;;4955409;28;20058;-84
2022/07/19 12:28:09;;;;;;;41.55;38.60;;;30.10;51.30;;;;;;4955664;29;20349;-84
2022/07/19 12:30:35;;;;;;;45.33;41.63;;;30.30;50.00;;;;;;4953228;28;20508;-84
2022/07/19 12:33:12;;;;;;;49.58;46.58;;;30.60;49.80;;;;;;4954593;29;20506;-84
2022/07/19 12:35:42;;;;;;;41.05;38.22;;;30.80;49.30;;;;;;4953928;28;20366;-84